createdAt,value
2022-09-07T00:00:01.079Z,5.50
2022-09-07T00:02:51.522Z,4.40
2022-09-07T00:05:22.234Z,6.80
2022-09-07T00:07:52.380Z,6.90
2022-09-07T00:10:24.002Z,6.00
2022-09-07T00:12:54.903Z,5.70
2022-09-07T00:15:25.586Z,6.70
2022-09-07T00:17:55.220Z,8.80
2022-09-07T00:20:25.538Z,6.80
2022-09-07T00:22:56.565Z,5.50
2022-09-07T00:25:29.813Z,8.00
2022-09-07T00:28:01.665Z,6.50
2022-09-07T00:30:32.246Z,5.70
2022-09-07T00:33:02.524Z,7.60
2022-09-07T00:35:33.584Z,8.10
2022-09-07T00:38:04.336Z,6.70
2022-09-07T00:40:34.449Z,6.90
2022-09-07T00:43:06.726Z,8.20
2022-09-07T00:45:37.370Z,6.90
2022-09-07T00:48:18.151Z,5.70
2022-09-07T00:50:53.102Z,8.20
2022-09-07T00:53:37.302Z,5.30
2022-09-07T00:56:10.108Z,4.40
2022-09-07T00:58:41.804Z,6.80
2022-09-07T01:01:12.439Z,5.00
2022-09-07T01:03:46.688Z,7.10
2022-09-07T01:06:24.290Z,7.20
2022-09-07T01:08:54.429Z,8.00
2022-09-07T01:11:24.354Z,8.40
2022-09-07T01:13:54.560Z,5.50
2022-09-07T01:17:22.448Z,6.20
2022-09-07T01:20:33.017Z,5.70
2022-09-07T01:23:33.201Z,6.30
2022-09-07T01:26:34.273Z,7.00
2022-09-07T01:29:29.994Z,6.90
2022-09-07T01:32:06.942Z,8.20
2022-09-07T01:34:37.503Z,7.10
2022-09-07T01:37:48.694Z,7.80
2022-09-07T01:40:39.394Z,5.80
2022-09-07T01:43:40.639Z,5.20
2022-09-07T01:46:41.585Z,7.50
2022-09-07T01:49:21.630Z,9.80
2022-09-07T01:51:58.249Z,7.70
2022-09-07T01:54:39.846Z,7.10
2022-09-07T01:57:15.986Z,6.60
2022-09-07T01:59:51.338Z,7.30
2022-09-07T02:02:28.820Z,6.20
2022-09-07T02:05:25.224Z,7.30
2022-09-07T02:08:03.768Z,7.60
2022-09-07T02:10:51.229Z,5.80
2022-09-07T02:13:30.494Z,7.00
2022-09-07T02:16:08.378Z,6.60
2022-09-07T02:18:50.494Z,6.60
2022-09-07T02:21:25.324Z,6.20
2022-09-07T02:24:01.706Z,6.60
2022-09-07T02:26:32.793Z,8.60
2022-09-07T02:29:03.470Z,9.70
2022-09-07T02:31:34.632Z,6.30
2022-09-07T02:34:05.649Z,6.60
2022-09-07T02:36:41.238Z,6.40
2022-09-07T02:39:11.231Z,6.80
2022-09-07T02:41:43.723Z,6.50
2022-09-07T02:44:18.041Z,7.30
2022-09-07T02:47:15.232Z,6.30
2022-09-07T02:49:58.728Z,8.50
2022-09-07T02:52:37.890Z,5.70
2022-09-07T02:55:51.570Z,8.50
2022-09-07T02:58:45.648Z,6.80
2022-09-07T03:01:34.974Z,7.90
2022-09-07T03:04:19.672Z,7.40
2022-09-07T03:07:04.438Z,5.90
2022-09-07T03:09:44.179Z,6.10
2022-09-07T03:12:14.875Z,8.00
2022-09-07T03:14:45.743Z,7.20
2022-09-07T03:17:15.283Z,8.30
2022-09-07T03:19:45.362Z,6.10
2022-09-07T03:22:15.911Z,6.90
2022-09-07T03:24:46.605Z,6.40
2022-09-07T03:27:16.241Z,5.60
2022-09-07T03:29:46.400Z,6.80
2022-09-07T03:32:16.258Z,6.50
2022-09-07T03:34:49.166Z,5.50
2022-09-07T03:37:19.134Z,5.90
2022-09-07T03:39:49.562Z,7.30
2022-09-07T03:42:20.213Z,8.30
2022-09-07T03:44:50.775Z,5.10
2022-09-07T03:47:20.998Z,7.10
2022-09-07T03:49:52.601Z,5.90
2022-09-07T03:52:23.390Z,5.80
2022-09-07T03:54:54.217Z,5.90
2022-09-07T03:57:26.273Z,9.40
2022-09-07T03:59:56.613Z,6.10
2022-09-07T04:02:27.080Z,4.50
2022-09-07T04:04:57.379Z,7.70
2022-09-07T04:07:27.423Z,8.60
2022-09-07T04:09:58.113Z,4.70
2022-09-07T04:12:28.734Z,9.30
2022-09-07T04:14:59.630Z,5.90
2022-09-07T04:17:28.985Z,6.10
2022-09-07T04:19:59.542Z,5.90
2022-09-07T04:22:29.311Z,5.30
2022-09-07T04:24:59.532Z,4.50
2022-09-07T04:27:29.201Z,4.30
2022-09-07T04:29:59.933Z,6.00
2022-09-07T04:32:30.274Z,5.00
2022-09-07T04:35:00.530Z,5.10
2022-09-07T04:37:31.352Z,5.70
2022-09-07T04:40:01.279Z,5.30
2022-09-07T04:42:31.800Z,6.70
2022-09-07T04:45:01.540Z,9.40
2022-09-07T04:47:31.320Z,7.30
2022-09-07T04:50:00.659Z,9.70
2022-09-07T04:52:30.779Z,6.40
2022-09-07T04:55:00.651Z,8.00
2022-09-07T04:57:30.060Z,7.90
2022-09-07T05:00:01.721Z,11.30
2022-09-07T05:02:31.718Z,11.20
2022-09-07T05:05:02.975Z,9.70
2022-09-07T05:07:32.491Z,7.70
2022-09-07T05:10:02.013Z,9.60
2022-09-07T05:12:31.493Z,7.80
2022-09-07T05:15:01.405Z,7.30
2022-09-07T05:17:31.663Z,9.80
2022-09-07T05:20:01.245Z,6.60
2022-09-07T05:22:30.781Z,7.40
2022-09-07T05:25:00.883Z,9.50
2022-09-07T05:27:30.403Z,8.00
2022-09-07T05:32:34.544Z,9.20
2022-09-07T05:35:03.887Z,9.20
2022-09-07T05:37:33.304Z,7.20
2022-09-07T05:40:03.077Z,6.00
2022-09-07T05:42:32.714Z,8.00
2022-09-07T05:45:02.172Z,6.10
2022-09-07T05:47:31.808Z,7.30
2022-09-07T05:50:01.108Z,6.80
2022-09-07T05:52:30.734Z,6.50
2022-09-07T05:55:19.297Z,5.50
2022-09-07T05:57:49.777Z,5.80
2022-09-07T06:00:21.955Z,10.20
2022-09-07T06:02:51.496Z,7.60
2022-09-07T06:05:21.097Z,7.80
2022-09-07T06:07:51.107Z,5.70
2022-09-07T06:13:10.335Z,6.40
2022-09-07T06:15:40.438Z,6.40
2022-09-07T06:18:10.018Z,6.70
2022-09-07T06:20:39.782Z,8.20
2022-09-07T06:23:09.167Z,7.90
2022-09-07T06:25:38.943Z,7.20
2022-09-07T06:28:08.658Z,8.20
2022-09-07T06:30:38.162Z,6.90
2022-09-07T06:33:07.365Z,6.10
2022-09-07T06:35:36.485Z,7.40
2022-09-07T06:38:05.857Z,7.40
2022-09-07T06:40:35.635Z,9.40
2022-09-07T06:43:04.755Z,5.50
2022-09-07T06:45:34.156Z,9.40
2022-09-07T06:48:03.816Z,8.30
2022-09-07T06:50:34.196Z,6.30
2022-09-07T06:55:53.883Z,7.50
2022-09-07T06:58:25.532Z,6.50
2022-09-07T07:00:55.669Z,6.30
2022-09-07T07:03:25.238Z,7.20
2022-09-07T07:05:55.885Z,7.10
2022-09-07T07:08:25.976Z,8.10
2022-09-07T07:10:55.451Z,7.10
2022-09-07T07:13:25.570Z,6.20
2022-09-07T07:16:06.507Z,8.00
2022-09-07T07:18:36.235Z,6.90
2022-09-07T07:21:08.052Z,9.70
2022-09-07T07:23:37.797Z,6.50
2022-09-07T07:26:16.205Z,6.70
2022-09-07T07:29:03.992Z,6.70
2022-09-07T07:31:36.790Z,7.30
2022-09-07T07:34:06.134Z,6.90
2022-09-07T07:36:36.041Z,7.10
2022-09-07T07:39:06.024Z,6.90
2022-09-07T07:44:24.401Z,8.60
2022-09-07T07:46:53.871Z,6.90
2022-09-07T07:49:22.866Z,6.90
2022-09-07T07:54:45.628Z,5.30
2022-09-07T07:57:15.036Z,6.60
2022-09-07T07:59:44.685Z,7.70
2022-09-07T08:02:16.477Z,7.10
2022-09-07T08:04:46.880Z,7.00
2022-09-07T08:07:16.845Z,6.90
2022-09-07T08:09:50.489Z,8.00
2022-09-07T08:12:20.791Z,5.50
2022-09-07T08:14:50.178Z,7.10
2022-09-07T08:17:19.371Z,8.10
2022-09-07T08:19:48.829Z,10.70
2022-09-07T08:22:17.820Z,7.80
2022-09-07T08:24:46.995Z,8.30
2022-09-07T08:27:21.049Z,9.00
2022-09-07T08:29:50.942Z,9.00
2022-09-07T08:32:20.133Z,6.80
2022-09-07T08:34:49.261Z,9.00
2022-09-07T08:37:18.389Z,6.80
2022-09-07T08:39:47.560Z,8.00
2022-09-07T08:42:54.202Z,8.90
2022-09-07T08:45:34.996Z,7.10
2022-09-07T08:48:05.386Z,6.80
2022-09-07T08:50:46.282Z,6.20
2022-09-07T08:53:18.410Z,8.50
2022-09-07T08:55:49.272Z,7.10
2022-09-07T08:58:48.863Z,8.60
2022-09-07T09:01:37.451Z,9.20
2022-09-07T09:04:23.683Z,8.50
2022-09-07T09:07:26.072Z,10.70
2022-09-07T09:10:19.413Z,8.20
2022-09-07T09:13:42.631Z,6.50
2022-09-07T09:16:21.784Z,8.10
2022-09-07T09:19:31.839Z,7.40
2022-09-07T09:22:26.343Z,6.30
2022-09-07T09:25:18.964Z,8.40
2022-09-07T09:27:50.917Z,5.70
2022-09-07T09:30:23.917Z,5.00
2022-09-07T09:33:12.149Z,5.10
2022-09-07T09:35:41.919Z,8.80
2022-09-07T09:38:36.777Z,5.00
2022-09-07T09:41:09.493Z,7.20
2022-09-07T09:43:57.178Z,5.20
2022-09-07T09:46:34.159Z,5.80
2022-09-07T09:49:28.759Z,4.80
2022-09-07T09:54:51.946Z,4.80
2022-09-07T10:01:21.159Z,6.40
2022-09-07T10:06:24.147Z,5.30
2022-09-07T10:09:00.817Z,6.60
2022-09-07T10:14:43.765Z,6.40
2022-09-07T10:17:18.287Z,5.60
2022-09-07T10:19:47.213Z,5.30
2022-09-07T10:22:38.169Z,7.70
2022-09-07T10:25:37.284Z,5.00
2022-09-07T10:28:10.543Z,7.40
2022-09-07T10:31:26.456Z,7.30
2022-09-07T10:34:26.368Z,6.40
2022-09-07T10:37:07.358Z,6.60
2022-09-07T10:39:44.646Z,6.90
2022-09-07T10:42:30.475Z,5.40
2022-09-07T10:45:20.733Z,6.30
2022-09-07T10:48:08.146Z,7.00
2022-09-07T10:50:52.395Z,5.90
2022-09-07T10:53:41.392Z,5.40
2022-09-07T10:56:30.942Z,7.90
2022-09-07T11:00:08.605Z,6.80
2022-09-07T11:06:22.362Z,6.50
2022-09-07T11:09:19.885Z,6.60
2022-09-07T11:12:32.890Z,7.20
2022-09-07T11:15:36.010Z,7.70
2022-09-07T11:18:32.509Z,4.70
2022-09-07T11:21:04.298Z,6.50
2022-09-07T11:23:50.839Z,9.20
2022-09-07T11:26:45.254Z,6.30
2022-09-07T11:29:48.152Z,8.70
2022-09-07T11:32:24.329Z,6.30
2022-09-07T11:35:19.559Z,6.40
2022-09-07T11:38:04.379Z,7.60
2022-09-07T11:40:40.020Z,5.80
2022-09-07T11:43:25.210Z,6.90
2022-09-07T11:46:26.937Z,6.30
2022-09-07T11:48:57.196Z,6.70
2022-09-07T11:51:53.705Z,7.30
2022-09-07T11:54:45.643Z,5.40
2022-09-07T11:57:51.351Z,7.30
2022-09-07T12:00:25.063Z,5.20
2022-09-07T12:03:34.574Z,5.40
2022-09-07T12:06:26.964Z,4.70
2022-09-07T12:09:26.838Z,4.40
2022-09-07T12:12:01.957Z,5.70
2022-09-07T12:14:54.760Z,6.30
2022-09-07T12:17:37.837Z,5.20
2022-09-07T12:20:21.646Z,5.60
2022-09-07T12:23:05.715Z,5.60
2022-09-07T12:25:35.590Z,5.90
2022-09-07T12:28:04.931Z,4.20
2022-09-07T12:30:37.388Z,7.20
2022-09-07T12:33:31.479Z,5.80
2022-09-07T12:36:01.442Z,4.80
2022-09-07T12:38:36.231Z,3.50
2022-09-07T12:41:23.465Z,8.00
2022-09-07T12:43:54.799Z,4.80
2022-09-07T12:46:34.700Z,4.10
2022-09-07T12:49:53.925Z,4.80
2022-09-07T12:52:49.157Z,4.90
2022-09-07T12:56:15.597Z,4.40
2022-09-07T12:58:52.547Z,6.50
2022-09-07T13:01:33.333Z,6.50
2022-09-07T13:04:31.497Z,4.60
2022-09-07T13:07:24.238Z,5.10
2022-09-07T13:10:01.569Z,5.30
2022-09-07T13:12:56.817Z,6.90
2022-09-07T13:15:49.328Z,5.10
2022-09-07T13:18:30.775Z,4.70
2022-09-07T13:21:08.673Z,4.50
2022-09-07T13:23:46.031Z,4.10
2022-09-07T13:26:53.869Z,7.00
2022-09-07T13:29:37.303Z,6.00
2022-09-07T13:32:18.172Z,7.80
2022-09-07T13:35:06.790Z,5.60
2022-09-07T13:37:59.392Z,7.00
2022-09-07T13:40:39.597Z,7.60
2022-09-07T13:43:23.280Z,5.30
2022-09-07T13:45:55.414Z,6.20
2022-09-07T13:48:29.755Z,5.90
2022-09-07T13:51:16.865Z,5.70
2022-09-07T13:53:56.735Z,5.80
2022-09-07T13:56:50.070Z,6.30
2022-09-07T13:59:28.364Z,6.30
2022-09-07T14:01:57.860Z,5.10
2022-09-07T14:04:29.101Z,6.20
2022-09-07T14:07:15.748Z,7.00
2022-09-07T14:09:44.745Z,5.00
2022-09-07T14:12:21.799Z,5.70
2022-09-07T14:15:40.793Z,6.20
2022-09-07T14:18:19.299Z,5.70
2022-09-07T14:20:53.540Z,6.20
2022-09-07T14:23:31.060Z,6.10
2022-09-07T14:26:19.195Z,5.20
2022-09-07T14:28:56.982Z,5.30
2022-09-07T14:31:26.105Z,5.80
2022-09-07T14:34:01.942Z,5.70
2022-09-07T14:36:44.663Z,6.10
2022-09-07T14:39:16.892Z,5.20
2022-09-07T14:41:46.482Z,5.60
2022-09-07T14:44:40.800Z,5.90
2022-09-07T14:47:30.938Z,5.10
2022-09-07T14:50:06.319Z,5.20
2022-09-07T14:53:33.118Z,4.90
2022-09-07T14:55:39.385Z,6.40
2022-09-07T14:58:11.469Z,5.10
2022-09-07T15:03:41.274Z,6.10
2022-09-07T15:07:00.991Z,6.20
2022-09-07T15:09:04.886Z,6.10
2022-09-07T15:11:36.608Z,6.00
2022-09-07T15:14:08.972Z,5.40
2022-09-07T15:16:43.139Z,5.80
2022-09-07T15:19:19.002Z,5.70
2022-09-07T15:21:48.411Z,6.80
2022-09-07T15:24:17.597Z,7.40
2022-09-07T15:27:03.530Z,6.20
2022-09-07T15:29:33.258Z,6.80
2022-09-07T15:32:05.141Z,5.60
2022-09-07T15:34:39.530Z,4.50
2022-09-07T15:39:59.372Z,6.10
2022-09-07T15:45:18.062Z,6.30
2022-09-07T15:47:52.818Z,5.40
2022-09-07T15:50:23.767Z,5.90
2022-09-07T15:52:52.924Z,5.00
2022-09-07T15:55:22.315Z,8.80
2022-09-07T15:57:59.416Z,5.60
2022-09-07T16:00:38.240Z,5.50
2022-09-07T16:03:08.120Z,5.10
2022-09-07T16:05:41.963Z,7.10
2022-09-07T16:08:32.756Z,6.20
2022-09-07T16:11:18.673Z,7.80
2022-09-07T16:13:48.950Z,5.50
2022-09-07T16:16:18.536Z,8.50
2022-09-07T16:18:48.124Z,6.00
2022-09-07T16:21:17.701Z,5.40
2022-09-07T16:23:50.338Z,5.50
2022-09-07T16:26:23.036Z,5.80
2022-09-07T16:28:53.578Z,5.10
2022-09-07T16:31:32.580Z,6.20
2022-09-07T16:34:04.049Z,8.10
2022-09-07T16:36:33.329Z,7.00
2022-09-07T16:39:03.908Z,7.20
2022-09-07T16:41:35.189Z,6.70
2022-09-07T16:44:04.130Z,6.60
2022-09-07T16:46:35.578Z,8.20
2022-09-07T16:49:07.829Z,8.10
2022-09-07T16:51:37.338Z,11.40
2022-09-07T16:54:07.156Z,11.10
2022-09-07T16:56:39.234Z,8.40
2022-09-07T16:59:10.304Z,6.40
2022-09-07T17:01:39.675Z,8.90
2022-09-07T17:04:11.198Z,8.30
2022-09-07T17:06:41.140Z,8.20
2022-09-07T17:09:13.393Z,12.30
2022-09-07T17:11:42.822Z,7.90
2022-09-07T17:14:13.381Z,11.10
2022-09-07T17:16:42.665Z,11.70
2022-09-07T17:19:29.183Z,13.50
2022-09-07T17:22:00.119Z,12.50
2022-09-07T17:24:32.110Z,11.00
2022-09-07T17:27:02.088Z,9.60
2022-09-07T17:29:33.918Z,11.20
2022-09-07T17:35:00.259Z,9.00
2022-09-07T17:37:29.347Z,8.40
2022-09-07T17:39:58.836Z,10.80
2022-09-07T17:43:38.957Z,7.50
2022-09-07T17:45:18.444Z,8.30
2022-09-07T17:47:50.000Z,8.30
2022-09-07T17:50:18.998Z,9.40
2022-09-07T17:52:53.004Z,8.80
2022-09-07T17:55:22.920Z,7.00
2022-09-07T17:57:52.122Z,9.20
2022-09-07T18:00:21.510Z,8.70
2022-09-07T18:02:50.412Z,10.40
2022-09-07T18:05:20.012Z,11.90
2022-09-07T18:07:49.933Z,7.60
2022-09-07T18:10:19.082Z,7.70
2022-09-07T18:12:48.222Z,8.20
2022-09-07T18:15:18.845Z,8.50
2022-09-07T18:17:48.941Z,9.50
2022-09-07T18:20:19.163Z,9.60
2022-09-07T18:22:48.971Z,8.00
2022-09-07T18:25:18.512Z,12.20
2022-09-07T18:29:03.339Z,7.40
2022-09-07T18:30:42.828Z,8.40
2022-09-07T18:33:12.222Z,8.60
2022-09-07T18:35:46.817Z,8.20
2022-09-07T18:38:16.050Z,7.80
2022-09-07T18:40:45.542Z,9.10
2022-09-07T18:43:16.306Z,12.60
2022-09-07T18:45:46.000Z,9.20
2022-09-07T18:48:15.294Z,9.30
2022-09-07T18:50:44.486Z,9.50
2022-09-07T18:53:16.787Z,10.10
2022-09-07T18:55:46.465Z,10.90
2022-09-07T18:58:16.928Z,10.40
2022-09-07T19:00:55.275Z,11.20
2022-09-07T19:03:27.987Z,12.20
2022-09-07T19:06:02.101Z,9.00
2022-09-07T19:08:41.919Z,9.60
2022-09-07T19:11:24.466Z,10.80
2022-09-07T19:14:01.345Z,14.20
2022-09-07T19:16:33.452Z,9.90
2022-09-07T19:19:05.875Z,8.00
2022-09-07T19:21:38.236Z,11.00
2022-09-07T19:24:14.017Z,13.10
2022-09-07T19:27:09.826Z,10.20
2022-09-07T19:29:39.428Z,11.00
2022-09-07T19:32:09.564Z,10.30
2022-09-07T19:34:45.016Z,12.80
2022-09-07T19:37:14.086Z,9.20
2022-09-07T19:39:44.344Z,13.60
2022-09-07T19:42:13.915Z,14.60
2022-09-07T19:44:43.315Z,10.50
2022-09-07T19:47:12.846Z,14.10
2022-09-07T19:49:41.921Z,11.50
2022-09-07T19:52:11.427Z,17.00
2022-09-07T19:54:41.338Z,13.70
2022-09-07T19:57:10.847Z,17.10
2022-09-07T19:59:40.847Z,17.60
2022-09-07T20:02:11.698Z,18.30
2022-09-07T20:04:41.290Z,16.70
2022-09-07T20:07:10.695Z,11.40
2022-09-07T20:09:40.104Z,11.40
2022-09-07T20:12:09.617Z,12.40
2022-09-07T20:14:42.699Z,13.70
2022-09-07T20:17:15.378Z,15.50
2022-09-07T20:19:46.187Z,14.80
2022-09-07T20:22:19.707Z,14.40
2022-09-07T20:24:52.057Z,11.30
2022-09-07T20:27:26.505Z,12.80
2022-09-07T20:29:56.234Z,11.20
2022-09-07T20:32:25.627Z,12.20
2022-09-07T20:34:58.956Z,11.50
2022-09-07T20:37:34.806Z,12.90
2022-09-07T20:40:10.466Z,13.90
2022-09-07T20:42:41.247Z,13.80
2022-09-07T20:45:11.580Z,11.30
2022-09-07T20:47:40.998Z,10.90
2022-09-07T20:50:11.649Z,11.20
2022-09-07T20:52:40.709Z,12.30
2022-09-07T20:55:10.668Z,13.00
2022-09-07T20:57:40.026Z,12.20
2022-09-07T21:00:10.383Z,9.80
2022-09-07T21:02:39.948Z,10.80
2022-09-07T21:05:09.798Z,11.80
2022-09-07T21:07:39.577Z,16.30
2022-09-07T21:10:10.211Z,15.60
2022-09-07T21:12:39.193Z,13.50
2022-09-07T21:15:09.591Z,13.70
2022-09-07T21:17:39.430Z,12.20
2022-09-07T21:20:12.120Z,10.40
2022-09-07T21:22:41.540Z,13.90
2022-09-07T21:25:11.294Z,10.70
2022-09-07T21:27:40.524Z,13.40
2022-09-07T21:30:10.205Z,13.00
2022-09-07T21:32:41.153Z,13.40
2022-09-07T21:35:10.678Z,9.70
2022-09-07T21:37:39.667Z,9.50
2022-09-07T21:40:09.958Z,10.10
2022-09-07T21:42:39.915Z,11.00
2022-09-07T21:45:10.844Z,12.90
2022-09-07T21:47:40.357Z,11.00
2022-09-07T21:50:10.104Z,9.80
2022-09-07T21:52:39.564Z,11.50
2022-09-07T21:55:09.575Z,9.80
2022-09-07T21:57:39.083Z,9.80
2022-09-07T22:00:10.104Z,9.70
2022-09-07T22:02:39.165Z,10.60
2022-09-07T22:05:09.359Z,11.20
2022-09-07T22:07:39.257Z,10.50
2022-09-07T22:10:10.022Z,9.30
2022-09-07T22:12:39.605Z,11.90
2022-09-07T22:15:09.517Z,11.00
2022-09-07T22:17:39.906Z,10.70
2022-09-07T22:20:12.620Z,12.20
2022-09-07T22:22:42.333Z,10.40
2022-09-07T22:25:11.531Z,12.10
2022-09-07T22:27:41.244Z,9.50
2022-09-07T22:30:11.905Z,11.00
2022-09-07T22:32:41.083Z,11.30
2022-09-07T22:35:10.814Z,12.20
2022-09-07T22:37:40.176Z,9.60
2022-09-07T22:40:10.280Z,10.50
2022-09-07T22:42:39.694Z,10.70
2022-09-07T22:45:09.779Z,8.60
2022-09-07T22:47:38.940Z,12.60
2022-09-07T22:50:12.030Z,9.10
2022-09-07T22:52:41.210Z,9.60
2022-09-07T22:55:10.918Z,10.00
2022-09-07T22:57:39.982Z,10.30
2022-09-07T23:00:10.868Z,12.60
2022-09-07T23:02:40.183Z,9.60
2022-09-07T23:05:10.708Z,10.20
2022-09-07T23:07:40.173Z,11.10
2022-09-07T23:10:09.954Z,11.60
2022-09-07T23:12:40.836Z,8.80
2022-09-07T23:15:10.538Z,12.20
2022-09-07T23:17:40.270Z,10.80
2022-09-07T23:20:10.632Z,8.50
2022-09-07T23:22:39.771Z,10.00
2022-09-07T23:25:09.431Z,10.90
2022-09-07T23:27:41.838Z,9.10
2022-09-07T23:30:12.565Z,9.90
2022-09-07T23:32:41.677Z,8.10
2022-09-07T23:35:14.789Z,9.20
2022-09-07T23:37:45.490Z,8.10
2022-09-07T23:40:15.205Z,8.20
2022-09-07T23:42:44.610Z,7.80
2022-09-07T23:45:13.998Z,10.60
2022-09-07T23:47:44.344Z,9.50
2022-09-07T23:50:13.533Z,17.60
2022-09-07T23:52:42.905Z,9.10
2022-09-07T23:55:12.650Z,7.80
2022-09-07T23:57:41.880Z,8.10
